Hauptseite
METAR-TAF:

METAR-TAF

Flughäfen :

Flughafen Verona

Verona, Italien

Breite: 45-23N, Länge: 010-52E, Höhe: 67 m

Beobachtung

Neuester Wetterbericht von vor 23 Minuten, um 15:50 UTC
Wind 3 kt aus Süd
Temperatur 15°C
Luftfeuchtigkeit 82%
Luftdruck 1027 hPa
Sichtweite: 9000 m
Aufgelockert bewölkt in der Höhe von 3000 ft

METAR: LIPX 141550Z 19003KT 9000 SCT030 15/12 Q1027

Zeit: 17:13 (16:13 UTC)

Prognose

Neuester Wetterbericht von vor 2 Stunden und 13 Minuten, um 14:00 UTC
Gültige Prognose vom 14 um 15 UTC bis 14 um 24 UTC
Wind 5 kt aus unterschiedlichen Richtungen
Sichtweite: 7000 m
Übergehend zu
vom 14 um 21 UTC bis 14 um 24 UTC
Sichtweite: 2000 m
feuchter Dunst

TAF: LIPX 141400Z 1415/1424 VRB05KT 7000 NSC BECMG 1421/1424 2000 BR

Wetterbeobachtungen und Prognosen von mehr als 4000 Flughäfen (METAR und TAF Bericht).

Die verfügbaren Stationen werden durch gelbe und rote Markierungen auf der Karte dargestellt.

Führen Sie die Maus auf sie, um den Namen der Station zu sehen.

Darauf klicken, um die Beobachtung von Wetterbeobachtungen und Prognosen zu sehen.

Um die Karte zu ändern : klicken Sie auf den grünen Tasten mit einem schwarzen Kreuz Zum Vergrößern, auf den grünen Button mit einem Gedankenstrich zu verkleinern, oder auf die grünen Pfeile für benachbarte Karten.


METAR-TAF: